MMMA/MAM METAR and TAF weather

Enter ICAO airport designator
Station Type Date Time Source
MMMA METAR 2020/08/05 14:40 UTC NOAA

MMMA 051440Z 18010KT 8SM BKN020TCU 29/27 A2998 RMK SLP150 52008 962 8/200


Station Type Date Time Source
MMMA Decoded METAR 2020/08/05 14:40 UTC NOAA

Matamoros International , Mexico (MMMA) 25-46N 097-32W
Aug 05, 2020 - 10:40 AM EDT / 2020.08.05 1440 UTC
Wind: from the S (180 degrees) at 12 MPH (10 KT):0
Visibility: 8 mile(s):0
Sky conditions: mostly cloudy
Weather: Towering cumulus clouds observed
Temperature: 84 F (29 C)
Dew Point: 80 F (27 C)
Relative Humidity: 88%
Pressure (altimeter): 29.98 in. Hg (1015 hPa)
Pressure tendency: 0.02 inches (0.8 hPa) higher than three hours ago
ob: MMMA 051440Z 18010KT 8SM BKN020TCU 29/27 A2998 RMK SLP150 52008 962 8/200
cycle: 14

Station Type Date Time Source
MMMA TAF 2020/08/05 06:51 UTC NOAA

TAF MMMA 050643Z 0506/0606 10005KT P6SM SCT025
FM051800 12015KT P6SM SCT030
BECMG 0600/0601 14010KT

Example: see airport list